^^
Saratoga-Weather Station Historical Data
Daily Summary for September 13, 2020 Units:  Both    English   Metric
Daily Weekly Monthly Yearly Custom
  High: Low: Average:
Temperature: 84.2 °F /  29 °C 50.5 °F /  10.3 °C 65.8 °F /  18.8 °C
Dew Point: 57.4 °F /  14.1 °C 39.4 °F /  4.1 °C 50.2 °F /  10.1 °C
Humidity: 94% 21% 62%
Wind Speed: 6mph /  9.7km/h - 0.6mph /  1km/h
Wind Gust: 7mph /  11.3km/h - -
Wind- - SE
Pressure: 30.3 in /  1025.7 hPa 30.2 in /  1022.4 hPa -
Precipitation: 0 in /  0.0 mm    
Historical Graphs
 
 
Tabular Data for September 13, 2020
Time Temperature Dew Point Pressure Wind Wind Speed Wind Gust Humidity Rainfall Rate (Hourly) solar
00:04 62.8 °F /  17.1 °C 51.3 °F /  10.7 °C 30.2in /  1022.4hPa West 0.9mph /  1.4km/h 5mph /  8km/h 66% 0in /  0.0mm 0 W/m2
00:09 62.8 °F /  17.1 °C 51.3 °F /  10.7 °C 30.2in /  1022.4hPa WSW 4mph /  6.4km/h 6mph /  9.7km/h 66% 0in /  0.0mm 0 W/m2
00:14 63 °F /  17.2 °C 51.1 °F /  10.6 °C 30.2in /  1022.4hPa WSW 2mph /  3.2km/h 6mph /  9.7km/h 65% 0in /  0.0mm 0 W/m2
00:19 63.1 °F /  17.3 °C 51.3 °F /  10.7 °C 30.2in /  1022.4hPa WNW 2mph /  3.2km/h 5mph /  8km/h 65% 0in /  0.0mm 0 W/m2
00:24 63.1 °F /  17.3 °C 51.3 °F /  10.7 °C 30.2in /  1022.4hPa WSW 2mph /  3.2km/h 4mph /  6.4km/h 65% 0in /  0.0mm 0 W/m2
00:29 63.1 °F /  17.3 °C 51.3 °F /  10.7 °C 30.2in /  1022.4hPa WSW 4mph /  6.4km/h 4mph /  6.4km/h 65% 0in /  0.0mm 0 W/m2
00:34 63.1 °F /  17.3 °C 51.6 °F /  10.9 °C 30.2in /  1022.7hPa WSW 0.9mph /  1.4km/h 3mph /  4.8km/h 66% 0in /  0.0mm 0 W/m2
00:39 63.1 °F /  17.3 °C 51.6 °F /  10.9 °C 30.2in /  1022.4hPa WSW 2.9mph /  4.7km/h 4mph /  6.4km/h 66% 0in /  0.0mm 0 W/m2
00:44 63 °F /  17.2 °C 51.4 °F /  10.8 °C 30.2in /  1022.7hPa WSW 2mph /  3.2km/h 3mph /  4.8km/h 66% 0in /  0.0mm 0 W/m2
00:49 63 °F /  17.2 °C 51.4 °F /  10.8 °C 30.2in /  1022.7hPa WSW 0.9mph /  1.4km/h 4mph /  6.4km/h 66% 0in /  0.0mm 0 W/m2
00:55 63 °F /  17.2 °C 51.8 °F /  11 °C 30.2in /  1022.7hPa WSW 2mph /  3.2km/h 3mph /  4.8km/h 67% 0in /  0.0mm 0 W/m2
01:00 62.8 °F /  17.1 °C 51.6 °F /  10.9 °C 30.2in /  1022.4hPa Calm     67% 0in /  0.0mm 0 W/m2
01:05 62.2 °F /  16.8 °C 51.1 °F /  10.6 °C 30.2in /  1022.4hPa Calm     67% 0in /  0.0mm 0 W/m2
01:10 61.9 °F /  16.6 °C 51.3 °F /  10.7 °C 30.2in /  1022.7hPa Calm     68% 0in /  0.0mm 0 W/m2
01:15 61.2 °F /  16.2 °C 50.9 °F /  10.5 °C 30.2in /  1022.7hPa WSW 0.9mph /  1.4km/h 2mph /  3.2km/h 69% 0in /  0.0mm 0 W/m2
01:20 60.6 °F /  15.9 °C 51.1 °F /  10.6 °C 30.2in /  1022.7hPa Calm   1mph /  1.6km/h 71% 0in /  0.0mm 0 W/m2
01:25 60.1 °F /  15.6 °C 51.1 °F /  10.6 °C 30.2in /  1022.7hPa Calm   2mph /  3.2km/h 72% 0in /  0.0mm 0 W/m2
01:30 59.5 °F /  15.3 °C 50.9 °F /  10.5 °C 30.2in /  1022.7hPa Calm   1mph /  1.6km/h 73% 0in /  0.0mm 0 W/m2
01:35 59.4 °F /  15.2 °C 50.7 °F /  10.4 °C 30.2in /  1022.7hPa Calm     73% 0in /  0.0mm 0 W/m2
01:40 58.8 °F /  14.9 °C 50.5 °F /  10.3 °C 30.2in /  1022.7hPa Calm     74% 0in /  0.0mm 0 W/m2
01:45 58.5 °F /  14.7 °C 50.5 °F /  10.3 °C 30.2in /  1022.7hPa WSW 0.9mph /  1.4km/h 1mph /  1.6km/h 75% 0in /  0.0mm 0 W/m2
01:50 58.3 °F /  14.6 °C 50.7 °F /  10.4 °C 30.2in /  1023.0hPa Calm     76% 0in /  0.0mm 0 W/m2
01:55 57.9 °F /  14.4 °C 50.7 °F /  10.4 °C 30.2in /  1023.0hPa Calm     77% 0in /  0.0mm 0 W/m2
02:00 57.7 °F /  14.3 °C 50.5 °F /  10.3 °C 30.2in /  1022.7hPa Calm     77% 0in /  0.0mm 0 W/m2
02:05 57.6 °F /  14.2 °C 50.7 °F /  10.4 °C 30.2in /  1022.7hPa Calm     78% 0in /  0.0mm 0 W/m2
02:10 57.2 °F /  14 °C 50.7 °F /  10.4 °C 30.2in /  1023.0hPa Calm     79% 0in /  0.0mm 0 W/m2
02:15 57 °F /  13.9 °C 50.5 °F /  10.3 °C 30.2in /  1023.0hPa Calm     79% 0in /  0.0mm 0 W/m2
02:20 57 °F /  13.9 °C 50.9 °F /  10.5 °C 30.2in /  1023.0hPa Calm     80% 0in /  0.0mm 0 W/m2
02:25 56.8 °F /  13.8 °C 50.7 °F /  10.4 °C 30.2in /  1023.0hPa Calm     80% 0in /  0.0mm 0 W/m2
02:30 56.7 °F /  13.7 °C 50.9 °F /  10.5 °C 30.2in /  1023.0hPa Calm     81% 0in /  0.0mm 0 W/m2
02:35 56.5 °F /  13.6 °C 50.7 °F /  10.4 °C 30.2in /  1023.0hPa Calm     81% 0in /  0.0mm 0 W/m2
02:40 56.3 °F /  13.5 °C 50.5 °F /  10.3 °C 30.2in /  1023.0hPa Calm     81% 0in /  0.0mm 0 W/m2
02:45 56.1 °F /  13.4 °C 50.7 °F /  10.4 °C 30.2in /  1023.0hPa Calm     82% 0in /  0.0mm 0 W/m2
02:50 55.9 °F /  13.3 °C 50.5 °F /  10.3 °C 30.2in /  1023.0hPa Calm     82% 0in /  0.0mm 0 W/m2
02:56 55.9 °F /  13.3 °C 50.9 °F /  10.5 °C 30.2in /  1023.0hPa Calm     83% 0in /  0.0mm 0 W/m2
03:01 55.9 °F /  13.3 °C 51.3 °F /  10.7 °C 30.2in /  1023.0hPa WSW 2mph /  3.2km/h 2mph /  3.2km/h 84% 0in /  0.0mm 0 W/m2
03:06 55.9 °F /  13.3 °C 51.3 °F /  10.7 °C 30.2in /  1023.0hPa Calm   1mph /  1.6km/h 84% 0in /  0.0mm 0 W/m2
03:11 55.9 °F /  13.3 °C 51.4 °F /  10.8 °C 30.2in /  1023.0hPa Calm     85% 0in /  0.0mm 0 W/m2
03:16 56.1 °F /  13.4 °C 51.4 °F /  10.8 °C 30.2in /  1023.0hPa Calm     84% 0in /  0.0mm 0 W/m2
03:21 56.1 °F /  13.4 °C 51.6 °F /  10.9 °C 30.2in /  1023.0hPa Calm     85% 0in /  0.0mm 0 W/m2
03:26 56.1 °F /  13.4 °C 51.4 °F /  10.8 °C 30.2in /  1023.0hPa Calm     84% 0in /  0.0mm 0 W/m2
03:31 56.1 °F /  13.4 °C 51.4 °F /  10.8 °C 30.2in /  1023.4hPa Calm     84% 0in /  0.0mm 0 W/m2
03:36 55.9 °F /  13.3 °C 51.3 °F /  10.7 °C 30.2in /  1023.4hPa Calm     84% 0in /  0.0mm 0 W/m2
03:41 55.9 °F /  13.3 °C 51.3 °F /  10.7 °C 30.2in /  1023.4hPa Calm     84% 0in /  0.0mm 0 W/m2
03:46 55.8 °F /  13.2 °C 51.1 °F /  10.6 °C 30.2in /  1023.4hPa Calm     84% 0in /  0.0mm 0 W/m2
03:51 55.6 °F /  13.1 °C 51.1 °F /  10.6 °C 30.2in /  1023.4hPa Calm     85% 0in /  0.0mm 0 W/m2
03:56 55.6 °F /  13.1 °C 51.1 °F /  10.6 °C 30.2in /  1023.4hPa Calm     85% 0in /  0.0mm 0 W/m2
04:01 55.2 °F /  12.9 °C 50.7 °F /  10.4 °C 30.2in /  1023.4hPa Calm     85% 0in /  0.0mm 0 W/m2
04:06 55 °F /  12.8 °C 50.9 °F /  10.5 °C 30.2in /  1023.4hPa Calm     86% 0in /  0.0mm 0 W/m2
04:11 54.9 °F /  12.7 °C 50.7 °F /  10.4 °C 30.2in /  1023.4hPa Calm     86% 0in /  0.0mm 0 W/m2
04:17 54.9 °F /  12.7 °C 50.7 °F /  10.4 °C 30.2in /  1023.4hPa Calm     86% 0in /  0.0mm 0 W/m2
04:22 54.9 °F /  12.7 °C 51.1 °F /  10.6 °C 30.2in /  1023.4hPa Calm     87% 0in /  0.0mm 0 W/m2
04:27 54.7 °F /  12.6 °C 50.9 °F /  10.5 °C 30.2in /  1023.4hPa Calm   1mph /  1.6km/h 87% 0in /  0.0mm 0 W/m2
04:32 54.7 °F /  12.6 °C 50.9 °F /  10.5 °C 30.2in /  1023.4hPa Calm   1mph /  1.6km/h 87% 0in /  0.0mm 0 W/m2
04:37 54.7 °F /  12.6 °C 50.9 °F /  10.5 °C 30.2in /  1023.4hPa Calm   1mph /  1.6km/h 87% 0in /  0.0mm 0 W/m2
04:42 54.5 °F /  12.5 °C 50.7 °F /  10.4 °C 30.2in /  1023.4hPa Calm     87% 0in /  0.0mm 0 W/m2
04:47 54.3 °F /  12.4 °C 50.5 °F /  10.3 °C 30.2in /  1023.4hPa Calm   1mph /  1.6km/h 87% 0in /  0.0mm 0 W/m2
04:52 54.3 °F /  12.4 °C 50.5 °F /  10.3 °C 30.2in /  1023.4hPa Calm     87% 0in /  0.0mm 0 W/m2
04:57 54.1 °F /  12.3 °C 50.4 °F /  10.2 °C 30.2in /  1023.0hPa Calm     87% 0in /  0.0mm 0 W/m2
05:02 54 °F /  12.2 °C 50.5 °F /  10.3 °C 30.2in /  1023.0hPa Calm     88% 0in /  0.0mm 0 W/m2
05:07 54 °F /  12.2 °C 50.5 °F /  10.3 °C 30.2in /  1023.0hPa Calm     88% 0in /  0.0mm 0 W/m2
05:12 53.8 °F /  12.1 °C 50.4 °F /  10.2 °C 30.2in /  1023.4hPa Calm     88% 0in /  0.0mm 0 W/m2
05:17 53.4 °F /  11.9 °C 50 °F /  10 °C 30.2in /  1023.0hPa Calm     88% 0in /  0.0mm 0 W/m2
05:22 53.2 °F /  11.8 °C 50 °F /  10 °C 30.2in /  1023.4hPa Calm     89% 0in /  0.0mm 0 W/m2
05:27 53.1 °F /  11.7 °C 49.8 °F /  9.9 °C 30.2in /  1023.4hPa Calm     89% 0in /  0.0mm 0 W/m2
05:32 53.1 °F /  11.7 °C 49.8 °F /  9.9 °C 30.2in /  1023.0hPa Calm     89% 0in /  0.0mm 0 W/m2
05:37 52.9 °F /  11.6 °C 50 °F /  10 °C 30.2in /  1023.0hPa Calm     90% 0in /  0.0mm 0 W/m2
05:42 52.9 °F /  11.6 °C 50.4 °F /  10.2 °C 30.2in /  1023.0hPa Calm     91% 0in /  0.0mm 0 W/m2
05:47 52.9 °F /  11.6 °C 50.4 °F /  10.2 °C 30.2in /  1023.0hPa Calm     91% 0in /  0.0mm 0 W/m2
05:52 52.7 °F /  11.5 °C 50.2 °F /  10.1 °C 30.2in /  1023.0hPa Calm     91% 0in /  0.0mm 0 W/m2
05:57 52.5 °F /  11.4 °C 50 °F /  10 °C 30.2in /  1023.0hPa Calm     91% 0in /  0.0mm 0 W/m2
06:02 52.5 °F /  11.4 °C 50 °F /  10 °C 30.2in /  1023.0hPa Calm     91% 0in /  0.0mm 0 W/m2
06:07 52.3 °F /  11.3 °C 49.8 °F /  9.9 °C 30.2in /  1023.4hPa Calm     91% 0in /  0.0mm 0 W/m2
06:12 52.2 °F /  11.2 °C 49.6 °F /  9.8 °C 30.2in /  1023.4hPa Calm     91% 0in /  0.0mm 0 W/m2
06:17 52.2 °F /  11.2 °C 49.8 °F /  9.9 °C 30.2in /  1023.4hPa Calm     92% 0in /  0.0mm 0 W/m2
06:22 52 °F /  11.1 °C 49.6 °F /  9.8 °C 30.2in /  1023.4hPa Calm     92% 0in /  0.0mm 0 W/m2
06:27 52 °F /  11.1 °C 49.6 °F /  9.8 °C 30.2in /  1023.4hPa Calm     92% 0in /  0.0mm 0 W/m2
06:32 51.8 °F /  11 °C 49.6 °F /  9.8 °C 30.2in /  1023.7hPa Calm     92% 0in /  0.0mm 0 W/m2
06:37 51.6 °F /  10.9 °C 49.5 °F /  9.7 °C 30.2in /  1023.7hPa Calm     92% 0in /  0.0mm 0 W/m2
06:42 51.4 °F /  10.8 °C 49.3 °F /  9.6 °C 30.2in /  1023.4hPa Calm     92% 0in /  0.0mm 0 W/m2
06:47 51.4 °F /  10.8 °C 49.3 °F /  9.6 °C 30.2in /  1023.4hPa Calm     92% 0in /  0.0mm 0 W/m2
06:52 51.4 °F /  10.8 °C 49.3 °F /  9.6 °C 30.2in /  1023.4hPa Calm     92% 0in /  0.0mm 0 W/m2
06:57 51.3 °F /  10.7 °C 49.1 °F /  9.5 °C 30.2in /  1023.4hPa Calm     92% 0in /  0.0mm 0 W/m2
07:02 51.1 °F /  10.6 °C 48.9 °F /  9.4 °C 30.2in /  1023.4hPa Calm     92% 0in /  0.0mm 0 W/m2
07:07 50.7 °F /  10.4 °C 48.6 °F /  9.2 °C 30.2in /  1023.7hPa Calm     92% 0in /  0.0mm 0 W/m2
07:12 50.7 °F /  10.4 °C 48.6 °F /  9.2 °C 30.2in /  1023.7hPa Calm     92% 0in /  0.0mm 0 W/m2
07:17 50.5 °F /  10.3 °C 48.6 °F /  9.2 °C 30.2in /  1023.7hPa Calm     93% 0in /  0.0mm 5 W/m2
07:22 50.7 °F /  10.4 °C 48.7 °F /  9.3 °C 30.2in /  1023.7hPa Calm     93% 0in /  0.0mm 9 W/m2
07:27 50.7 °F /  10.4 °C 48.7 °F /  9.3 °C 30.2in /  1024.0hPa Calm     93% 0in /  0.0mm 9 W/m2
07:32 50.9 °F /  10.5 °C 48.9 °F /  9.4 °C 30.2in /  1024.0hPa Calm     93% 0in /  0.0mm 11 W/m2
07:37 50.9 °F /  10.5 °C 48.9 °F /  9.4 °C 30.2in /  1024.0hPa Calm     93% 0in /  0.0mm 12 W/m2
07:43 51.1 °F /  10.6 °C 49.1 °F /  9.5 °C 30.2in /  1024.0hPa Calm     93% 0in /  0.0mm 14 W/m2
07:48 51.1 °F /  10.6 °C 49.1 °F /  9.5 °C 30.2in /  1024.0hPa Calm     93% 0in /  0.0mm 16 W/m2
07:53 50.9 °F /  10.5 °C 49.3 °F /  9.6 °C 30.2in /  1024.0hPa Calm     94% 0in /  0.0mm 16 W/m2
07:58 51.1 °F /  10.6 °C 49.5 °F /  9.7 °C 30.3in /  1024.4hPa Calm     94% 0in /  0.0mm 18 W/m2
08:03 51.1 °F /  10.6 °C 49.5 °F /  9.7 °C 30.3in /  1024.4hPa Calm     94% 0in /  0.0mm 19 W/m2
08:08 51.3 °F /  10.7 °C 49.6 °F /  9.8 °C 30.3in /  1024.4hPa Calm     94% 0in /  0.0mm 19 W/m2
08:13 51.4 °F /  10.8 °C 49.8 °F /  9.9 °C 30.3in /  1024.4hPa Calm     94% 0in /  0.0mm 21 W/m2
08:18 51.8 °F /  11 °C 50.2 °F /  10.1 °C 30.3in /  1024.7hPa Calm     94% 0in /  0.0mm 23 W/m2
08:23 52 °F /  11.1 °C 50.4 °F /  10.2 °C 30.3in /  1024.7hPa Calm     94% 0in /  0.0mm 26 W/m2
08:28 52.2 °F /  11.2 °C 50.5 °F /  10.3 °C 30.3in /  1024.7hPa Calm     94% 0in /  0.0mm 102 W/m2
08:33 52.5 °F /  11.4 °C 50.9 °F /  10.5 °C 30.3in /  1024.7hPa Calm     94% 0in /  0.0mm 123 W/m2
08:38 52.9 °F /  11.6 °C 51.3 °F /  10.7 °C 30.3in /  1024.7hPa Calm     94% 0in /  0.0mm 134 W/m2
08:43 53.1 °F /  11.7 °C 51.4 °F /  10.8 °C 30.3in /  1024.7hPa Calm     94% 0in /  0.0mm 151 W/m2
08:48 53.4 °F /  11.9 °C 51.8 °F /  11 °C 30.3in /  1025.1hPa Calm     94% 0in /  0.0mm 162 W/m2
08:53 54 °F /  12.2 °C 52 °F /  11.1 °C 30.3in /  1025.1hPa Calm     93% 0in /  0.0mm 33 W/m2
08:58 54.5 °F /  12.5 °C 52.5 °F /  11.4 °C 30.3in /  1025.1hPa Calm     93% 0in /  0.0mm 40 W/m2
09:03 55 °F /  12.8 °C 52.7 °F /  11.5 °C 30.3in /  1025.1hPa Calm     92% 0in /  0.0mm 188 W/m2
09:08 55.6 °F /  13.1 °C 53.1 °F /  11.7 °C 30.3in /  1025.1hPa Calm     91% 0in /  0.0mm 220 W/m2
09:13 56.1 °F /  13.4 °C 53.2 °F /  11.8 °C 30.3in /  1025.1hPa Calm   1mph /  1.6km/h 90% 0in /  0.0mm 237 W/m2
09:18 56.8 °F /  13.8 °C 53.6 °F /  12 °C 30.3in /  1025.1hPa ENE 2mph /  3.2km/h 2mph /  3.2km/h 89% 0in /  0.0mm 169 W/m2
09:23 57.6 °F /  14.2 °C 53.4 °F /  11.9 °C 30.3in /  1025.1hPa Calm   1mph /  1.6km/h 86% 0in /  0.0mm 39 W/m2
09:28 58.3 °F /  14.6 °C 53.4 °F /  11.9 °C 30.3in /  1025.1hPa NNE 2mph /  3.2km/h 3mph /  4.8km/h 84% 0in /  0.0mm 39 W/m2
09:33 58.8 °F /  14.9 °C 53.6 °F /  12 °C 30.3in /  1025.1hPa ESE 0.9mph /  1.4km/h 2mph /  3.2km/h 83% 0in /  0.0mm 40 W/m2
09:38 59.5 °F /  15.3 °C 53.8 °F /  12.1 °C 30.3in /  1025.1hPa Calm   3mph /  4.8km/h 81% 0in /  0.0mm 40 W/m2
09:43 60.1 °F /  15.6 °C 54.3 °F /  12.4 °C 30.3in /  1025.4hPa ESE 0.9mph /  1.4km/h 2mph /  3.2km/h 81% 0in /  0.0mm 42 W/m2
09:48 60.8 °F /  16 °C 54.7 °F /  12.6 °C 30.3in /  1025.4hPa North 0.9mph /  1.4km/h 1mph /  1.6km/h 80% 0in /  0.0mm 42 W/m2
09:53 61.2 °F /  16.2 °C 54.3 °F /  12.4 °C 30.3in /  1025.4hPa North 0.9mph /  1.4km/h 2mph /  3.2km/h 78% 0in /  0.0mm 42 W/m2
09:58 61.3 °F /  16.3 °C 54.5 °F /  12.5 °C 30.3in /  1025.4hPa Calm     78% 0in /  0.0mm 44 W/m2
10:03 61.9 °F /  16.6 °C 54.9 °F /  12.7 °C 30.3in /  1025.4hPa North 2mph /  3.2km/h 2mph /  3.2km/h 78% 0in /  0.0mm 44 W/m2
10:08 62.4 °F /  16.9 °C 54.7 °F /  12.6 °C 30.3in /  1025.4hPa SSW 0.9mph /  1.4km/h 2mph /  3.2km/h 76% 0in /  0.0mm 44 W/m2
10:13 62.8 °F /  17.1 °C 54.7 °F /  12.6 °C 30.3in /  1025.4hPa WNW 0.9mph /  1.4km/h 2mph /  3.2km/h 75% 0in /  0.0mm 46 W/m2
10:18 63 °F /  17.2 °C 55.2 °F /  12.9 °C 30.3in /  1025.4hPa WNW 0.9mph /  1.4km/h 1mph /  1.6km/h 76% 0in /  0.0mm 46 W/m2
10:23 63.1 °F /  17.3 °C 55 °F /  12.8 °C 30.3in /  1025.4hPa WNW 0.9mph /  1.4km/h 1mph /  1.6km/h 75% 0in /  0.0mm 47 W/m2
10:28 63.5 °F /  17.5 °C 55.4 °F /  13 °C 30.3in /  1025.4hPa West 2mph /  3.2km/h 2mph /  3.2km/h 75% 0in /  0.0mm 47 W/m2
10:34 63.7 °F /  17.6 °C 55.2 °F /  12.9 °C 30.3in /  1025.4hPa West 2mph /  3.2km/h 3mph /  4.8km/h 74% 0in /  0.0mm 47 W/m2
10:39 63.9 °F /  17.7 °C 55.4 °F /  13 °C 30.3in /  1025.4hPa Calm   2mph /  3.2km/h 74% 0in /  0.0mm 46 W/m2
10:44 64.6 °F /  18.1 °C 56.1 °F /  13.4 °C 30.3in /  1025.4hPa Calm   3mph /  4.8km/h 74% 0in /  0.0mm 46 W/m2
10:49 65.3 °F /  18.5 °C 56.5 °F /  13.6 °C 30.3in /  1025.4hPa ENE 0.9mph /  1.4km/h 4mph /  6.4km/h 73% 0in /  0.0mm 46 W/m2
10:54 66 °F /  18.9 °C 56.3 °F /  13.5 °C 30.3in /  1025.4hPa ENE 2mph /  3.2km/h 2mph /  3.2km/h 71% 0in /  0.0mm 46 W/m2
10:59 66.4 °F /  19.1 °C 56.3 °F /  13.5 °C 30.3in /  1025.4hPa ESE 0.9mph /  1.4km/h 4mph /  6.4km/h 70% 0in /  0.0mm 46 W/m2
11:04 66.7 °F /  19.3 °C 56.7 °F /  13.7 °C 30.3in /  1025.4hPa Calm   2mph /  3.2km/h 70% 0in /  0.0mm 47 W/m2
11:09 66.9 °F /  19.4 °C 56.5 °F /  13.6 °C 30.3in /  1025.4hPa ESE 2mph /  3.2km/h 3mph /  4.8km/h 69% 0in /  0.0mm 47 W/m2
11:14 67.3 °F /  19.6 °C 56.3 °F /  13.5 °C 30.3in /  1025.4hPa NW 0.9mph /  1.4km/h 1mph /  1.6km/h 68% 0in /  0.0mm 49 W/m2
11:19 67.5 °F /  19.7 °C 56.1 °F /  13.4 °C 30.3in /  1025.4hPa East 0.9mph /  1.4km/h 3mph /  4.8km/h 67% 0in /  0.0mm 51 W/m2
11:24 67.6 °F /  19.8 °C 56.3 °F /  13.5 °C 30.3in /  1025.7hPa ESE 2mph /  3.2km/h 4mph /  6.4km/h 67% 0in /  0.0mm 53 W/m2
11:29 68 °F /  20 °C 56.7 °F /  13.7 °C 30.3in /  1025.7hPa SE 2mph /  3.2km/h 3mph /  4.8km/h 67% 0in /  0.0mm 53 W/m2
11:34 68.5 °F /  20.3 °C 56.7 °F /  13.7 °C 30.3in /  1025.4hPa ENE 4mph /  6.4km/h 5mph /  8km/h 66% 0in /  0.0mm 53 W/m2
11:39 68.9 °F /  20.5 °C 56.7 °F /  13.7 °C 30.3in /  1025.4hPa North 0.9mph /  1.4km/h 2mph /  3.2km/h 65% 0in /  0.0mm 125 W/m2
11:44 69.1 °F /  20.6 °C 56.5 °F /  13.6 °C 30.3in /  1025.4hPa Calm   3mph /  4.8km/h 64% 0in /  0.0mm 545 W/m2
11:49 69.4 °F /  20.8 °C 56.7 °F /  13.7 °C 30.3in /  1025.7hPa NE 0.9mph /  1.4km/h 3mph /  4.8km/h 64% 0in /  0.0mm 603 W/m2
11:54 70.2 °F /  21.2 °C 56.5 °F /  13.6 °C 30.3in /  1025.4hPa NE 0.9mph /  1.4km/h 2mph /  3.2km/h 62% 0in /  0.0mm 612 W/m2
11:59 70.3 °F /  21.3 °C 56.7 °F /  13.7 °C 30.3in /  1025.4hPa Calm   4mph /  6.4km/h 62% 0in /  0.0mm 621 W/m2
12:04 70.9 °F /  21.6 °C 57.2 °F /  14 °C 30.3in /  1025.7hPa Calm   1mph /  1.6km/h 62% 0in /  0.0mm 626 W/m2
12:09 71.2 °F /  21.8 °C 57 °F /  13.9 °C 30.3in /  1025.7hPa Calm   3mph /  4.8km/h 61% 0in /  0.0mm 635 W/m2
12:14 72 °F /  22.2 °C 56.8 °F /  13.8 °C 30.3in /  1025.4hPa WNW 0.9mph /  1.4km/h 2mph /  3.2km/h 59% 0in /  0.0mm 643 W/m2
12:19 72.5 °F /  22.5 °C 56.8 °F /  13.8 °C 30.3in /  1025.4hPa East 2.9mph /  4.7km/h 4mph /  6.4km/h 58% 0in /  0.0mm 649 W/m2
12:24 73 °F /  22.8 °C 57.4 °F /  14.1 °C 30.3in /  1025.4hPa NE 0.9mph /  1.4km/h 3mph /  4.8km/h 58% 0in /  0.0mm 654 W/m2
12:29 73.2 °F /  22.9 °C 57 °F /  13.9 °C 30.3in /  1025.4hPa SSE 0.9mph /  1.4km/h 2mph /  3.2km/h 57% 0in /  0.0mm 661 W/m2
12:34 73.2 °F /  22.9 °C 56.7 °F /  13.7 °C 30.3in /  1025.4hPa Calm   1mph /  1.6km/h 56% 0in /  0.0mm 666 W/m2
12:39 73.6 °F /  23.1 °C 56.8 °F /  13.8 °C 30.3in /  1025.4hPa Calm     56% 0in /  0.0mm 673 W/m2
12:44 73.9 °F /  23.3 °C 56.3 °F /  13.5 °C 30.3in /  1025.4hPa East 0.9mph /  1.4km/h 3mph /  4.8km/h 54% 0in /  0.0mm 679 W/m2
12:49 74.1 °F /  23.4 °C 56.5 °F /  13.6 °C 30.3in /  1025.4hPa Calm   2mph /  3.2km/h 54% 0in /  0.0mm 680 W/m2
12:54 74.3 °F /  23.5 °C 56.7 °F /  13.7 °C 30.3in /  1025.1hPa South 0.9mph /  1.4km/h 1mph /  1.6km/h 54% 0in /  0.0mm 684 W/m2
12:59 74.7 °F /  23.7 °C 56.5 °F /  13.6 °C 30.3in /  1025.1hPa NE 2mph /  3.2km/h 5mph /  8km/h 53% 0in /  0.0mm 686 W/m2
13:04 74.5 °F /  23.6 °C 56.3 °F /  13.5 °C 30.3in /  1025.1hPa NW 2mph /  3.2km/h 3mph /  4.8km/h 53% 0in /  0.0mm 686 W/m2
13:09 74.5 °F /  23.6 °C 55.8 °F /  13.2 °C 30.3in /  1025.1hPa Calm   1mph /  1.6km/h 52% 0in /  0.0mm 689 W/m2
13:14 74.8 °F /  23.8 °C 56.1 °F /  13.4 °C 30.3in /  1025.1hPa East 6mph /  9.7km/h 6mph /  9.7km/h 52% 0in /  0.0mm 694 W/m2
13:19 75.4 °F /  24.1 °C 55.9 °F /  13.3 °C 30.3in /  1025.1hPa SE 0.9mph /  1.4km/h 2mph /  3.2km/h 51% 0in /  0.0mm 696 W/m2
13:24 75.9 °F /  24.4 °C 55.9 °F /  13.3 °C 30.3in /  1025.1hPa East 0.9mph /  1.4km/h 4mph /  6.4km/h 50% 0in /  0.0mm 694 W/m2
13:29 76.3 °F /  24.6 °C 55.8 °F /  13.2 °C 30.3in /  1025.1hPa Calm   2mph /  3.2km/h 49% 0in /  0.0mm 696 W/m2
13:34 76.5 °F /  24.7 °C 56.5 °F /  13.6 °C 30.3in /  1025.1hPa SE 2mph /  3.2km/h 4mph /  6.4km/h 50% 0in /  0.0mm 696 W/m2
13:39 76.5 °F /  24.7 °C 55.9 °F /  13.3 °C 30.3in /  1025.1hPa Calm   1mph /  1.6km/h 49% 0in /  0.0mm 698 W/m2
13:44 76.8 °F /  24.9 °C 55.6 °F /  13.1 °C 30.3in /  1025.1hPa NE 2mph /  3.2km/h 5mph /  8km/h 48% 0in /  0.0mm 698 W/m2
13:49 77.4 °F /  25.2 °C 55.6 °F /  13.1 °C 30.3in /  1025.1hPa Calm   3mph /  4.8km/h 47% 0in /  0.0mm 698 W/m2
13:54 77.7 °F /  25.4 °C 55.2 °F /  12.9 °C 30.3in /  1025.1hPa ENE 0.9mph /  1.4km/h 2mph /  3.2km/h 46% 0in /  0.0mm 698 W/m2
13:59 77.9 °F /  25.5 °C 54.3 °F /  12.4 °C 30.3in /  1024.7hPa NE 0.9mph /  1.4km/h 5mph /  8km/h 44% 0in /  0.0mm 700 W/m2
14:04 77.7 °F /  25.4 °C 55.2 °F /  12.9 °C 30.3in /  1024.7hPa Calm   2mph /  3.2km/h 46% 0in /  0.0mm 694 W/m2
14:09 78.1 °F /  25.6 °C 55 °F /  12.8 °C 30.3in /  1024.7hPa NE 2mph /  3.2km/h 5mph /  8km/h 45% 0in /  0.0mm 694 W/m2
14:14 78.4 °F /  25.8 °C 55.4 °F /  13 °C 30.3in /  1024.4hPa ESE 2.9mph /  4.7km/h 3mph /  4.8km/h 45% 0in /  0.0mm 693 W/m2
14:19 79 °F /  26.1 °C 55.8 °F /  13.2 °C 30.3in /  1024.4hPa Calm   7mph /  11.3km/h 45% 0in /  0.0mm 693 W/m2
14:24 79.3 °F /  26.3 °C 53.6 °F /  12 °C 30.3in /  1024.4hPa North 0.9mph /  1.4km/h 3mph /  4.8km/h 41% 0in /  0.0mm 689 W/m2
14:29 79.5 °F /  26.4 °C 53.8 °F /  12.1 °C 30.3in /  1024.4hPa NNW 2mph /  3.2km/h 6mph /  9.7km/h 41% 0in /  0.0mm 686 W/m2
14:34 80.1 °F /  26.7 °C 54.3 °F /  12.4 °C 30.3in /  1024.4hPa ENE 4mph /  6.4km/h 4mph /  6.4km/h 41% 0in /  0.0mm 682 W/m2
14:39 80.2 °F /  26.8 °C 53.1 °F /  11.7 °C 30.3in /  1024.4hPa ENE 2mph /  3.2km/h 6mph /  9.7km/h 39% 0in /  0.0mm 682 W/m2
14:44 80.4 °F /  26.9 °C 52.5 °F /  11.4 °C 30.3in /  1024.4hPa Calm   3mph /  4.8km/h 38% 0in /  0.0mm 677 W/m2
14:49 80.4 °F /  26.9 °C 54.5 °F /  12.5 °C 30.3in /  1024.4hPa NE 0.9mph /  1.4km/h 6mph /  9.7km/h 41% 0in /  0.0mm 673 W/m2
14:54 80.6 °F /  27 °C 53.4 °F /  11.9 °C 30.2in /  1024.0hPa East 0.9mph /  1.4km/h 3mph /  4.8km/h 39% 0in /  0.0mm 666 W/m2
14:59 81 °F /  27.2 °C 53.6 °F /  12 °C 30.2in /  1024.0hPa NE 0.9mph /  1.4km/h 4mph /  6.4km/h 39% 0in /  0.0mm 659 W/m2
15:04 81.1 °F /  27.3 °C 53.8 °F /  12.1 °C 30.2in /  1024.0hPa Calm   2mph /  3.2km/h 39% 0in /  0.0mm 654 W/m2
15:09 81.3 °F /  27.4 °C 52.5 °F /  11.4 °C 30.2in /  1024.0hPa NE 2mph /  3.2km/h 4mph /  6.4km/h 37% 0in /  0.0mm 649 W/m2
15:14 81.3 °F /  27.4 °C 52.5 °F /  11.4 °C 30.2in /  1024.0hPa NNE 2mph /  3.2km/h 3mph /  4.8km/h 37% 0in /  0.0mm 643 W/m2
15:19 81.5 °F /  27.5 °C 52 °F /  11.1 °C 30.2in /  1024.0hPa East 2.9mph /  4.7km/h 4mph /  6.4km/h 36% 0in /  0.0mm 638 W/m2
15:24 81.9 °F /  27.7 °C 52.3 °F /  11.3 °C 30.2in /  1024.0hPa ENE 2.9mph /  4.7km/h 5mph /  8km/h 36% 0in /  0.0mm 629 W/m2
15:29 82 °F /  27.8 °C 51.6 °F /  10.9 °C 30.2in /  1024.0hPa East 2.9mph /  4.7km/h 4mph /  6.4km/h 35% 0in /  0.0mm 622 W/m2
15:34 82 °F /  27.8 °C 51.6 °F /  10.9 °C 30.2in /  1024.0hPa East 4.9mph /  7.9km/h 5mph /  8km/h 35% 0in /  0.0mm 615 W/m2
15:39 82.6 °F /  28.1 °C 52.2 °F /  11.2 °C 30.2in /  1023.7hPa SE 0.9mph /  1.4km/h 2mph /  3.2km/h 35% 0in /  0.0mm 608 W/m2
15:44 82.8 °F /  28.2 °C 51.4 °F /  10.8 °C 30.2in /  1023.7hPa SSE 0.9mph /  1.4km/h 1mph /  1.6km/h 34% 0in /  0.0mm 601 W/m2
15:49 83.1 °F /  28.4 °C 52.7 °F /  11.5 °C 30.2in /  1023.7hPa Calm   1mph /  1.6km/h 35% 0in /  0.0mm 594 W/m2
15:54 83.3 °F /  28.5 °C 51.3 °F /  10.7 °C 30.2in /  1023.7hPa East 2mph /  3.2km/h 3mph /  4.8km/h 33% 0in /  0.0mm 582 W/m2
15:59 83.5 °F /  28.6 °C 52.2 °F /  11.2 °C 30.2in /  1023.7hPa Calm   1mph /  1.6km/h 34% 0in /  0.0mm 577 W/m2
16:05 83.8 °F /  28.8 °C 52.5 °F /  11.4 °C 30.2in /  1023.4hPa SE 0.9mph /  1.4km/h 2mph /  3.2km/h 34% 0in /  0.0mm 568 W/m2
16:10 83.8 °F /  28.8 °C 50.9 °F /  10.5 °C 30.2in /  1023.7hPa West 2mph /  3.2km/h 3mph /  4.8km/h 32% 0in /  0.0mm 559 W/m2
16:15 83.8 °F /  28.8 °C 50.9 °F /  10.5 °C 30.2in /  1023.7hPa ENE 0.9mph /  1.4km/h 1mph /  1.6km/h 32% 0in /  0.0mm 548 W/m2
16:20 83.8 °F /  28.8 °C 51.6 °F /  10.9 °C 30.2in /  1023.7hPa ESE 2mph /  3.2km/h 3mph /  4.8km/h 33% 0in /  0.0mm 538 W/m2
16:25 83.8 °F /  28.8 °C 50 °F /  10 °C 30.2in /  1023.7hPa Calm   4mph /  6.4km/h 31% 0in /  0.0mm 533 W/m2
16:30 83.8 °F /  28.8 °C 50 °F /  10 °C 30.2in /  1023.4hPa East 2.9mph /  4.7km/h 4mph /  6.4km/h 31% 0in /  0.0mm 522 W/m2
16:35 83.8 °F /  28.8 °C 49.1 °F /  9.5 °C 30.2in /  1023.4hPa NNE 2mph /  3.2km/h 4mph /  6.4km/h 30% 0in /  0.0mm 513 W/m2
16:40 84.2 °F /  29 °C 49.5 °F /  9.7 °C 30.2in /  1023.4hPa ENE 2mph /  3.2km/h 4mph /  6.4km/h 30% 0in /  0.0mm 504 W/m2
16:45 84 °F /  28.9 °C 48.4 °F /  9.1 °C 30.2in /  1023.4hPa Calm   2mph /  3.2km/h 29% 0in /  0.0mm 494 W/m2
16:50 84 °F /  28.9 °C 48.4 °F /  9.1 °C 30.2in /  1023.4hPa ENE 0.9mph /  1.4km/h 1mph /  1.6km/h 29% 0in /  0.0mm 482 W/m2
16:55 84 °F /  28.9 °C 49.3 °F /  9.6 °C 30.2in /  1023.4hPa East 2.9mph /  4.7km/h 4mph /  6.4km/h 30% 0in /  0.0mm 469 W/m2
17:00 83.7 °F /  28.7 °C 46.2 °F /  7.9 °C 30.2in /  1023.4hPa SE 4mph /  6.4km/h 4mph /  6.4km/h 27% 0in /  0.0mm 457 W/m2
17:05 83.5 °F /  28.6 °C 46.9 °F /  8.3 °C 30.2in /  1023.4hPa ENE 0.9mph /  1.4km/h 4mph /  6.4km/h 28% 0in /  0.0mm 443 W/m2
17:10 83.7 °F /  28.7 °C 44.1 °F /  6.7 °C 30.2in /  1023.4hPa Calm   1mph /  1.6km/h 25% 0in /  0.0mm 434 W/m2
17:15 84 °F /  28.9 °C 47.5 °F /  8.6 °C 30.2in /  1023.4hPa East 0.9mph /  1.4km/h 2mph /  3.2km/h 28% 0in /  0.0mm 422 W/m2
17:20 83.7 °F /  28.7 °C 40.8 °F /  4.9 °C 30.2in /  1023.0hPa Calm   3mph /  4.8km/h 22% 0in /  0.0mm 408 W/m2
17:25 83.7 °F /  28.7 °C 45.1 °F /  7.3 °C 30.2in /  1023.4hPa ENE 0.9mph /  1.4km/h 1mph /  1.6km/h 26% 0in /  0.0mm 396 W/m2
17:30 83.5 °F /  28.6 °C 39.4 °F /  4.1 °C 30.2in /  1023.4hPa Calm   3mph /  4.8km/h 21% 0in /  0.0mm 385 W/m2
17:35 83.7 °F /  28.7 °C 45.1 °F /  7.3 °C 30.2in /  1023.4hPa Calm   1mph /  1.6km/h 26% 0in /  0.0mm 374 W/m2
17:40 83.7 °F /  28.7 °C 44.1 °F /  6.7 °C 30.2in /  1023.4hPa SE 2mph /  3.2km/h 2mph /  3.2km/h 25% 0in /  0.0mm 359 W/m2
17:45 83.5 °F /  28.6 °C 43 °F /  6.1 °C 30.2in /  1023.4hPa SE 0.9mph /  1.4km/h 1mph /  1.6km/h 24% 0in /  0.0mm 343 W/m2
17:50 83.3 °F /  28.5 °C 43.9 °F /  6.6 °C 30.2in /  1023.0hPa ESE 2mph /  3.2km/h 2mph /  3.2km/h 25% 0in /  0.0mm 329 W/m2
17:55 82.9 °F /  28.3 °C 42.4 °F /  5.8 °C 30.2in /  1023.0hPa Calm   1mph /  1.6km/h 24% 0in /  0.0mm 311 W/m2
18:00 82.6 °F /  28.1 °C 44.2 °F /  6.8 °C 30.2in /  1023.0hPa Calm   1mph /  1.6km/h 26% 0in /  0.0mm 292 W/m2
18:05 82.6 °F /  28.1 °C 44.2 °F /  6.8 °C 30.2in /  1023.0hPa SE 0.9mph /  1.4km/h 2mph /  3.2km/h 26% 0in /  0.0mm 281 W/m2
18:10 82.6 °F /  28.1 °C 43.2 °F /  6.2 °C 30.2in /  1023.0hPa Calm   1mph /  1.6km/h 25% 0in /  0.0mm 264 W/m2
18:15 82.6 °F /  28.1 °C 45.1 °F /  7.3 °C 30.2in /  1023.0hPa Calm   2mph /  3.2km/h 27% 0in /  0.0mm 251 W/m2
18:20 82.6 °F /  28.1 °C 45.1 °F /  7.3 °C 30.2in /  1023.0hPa Calm     27% 0in /  0.0mm 234 W/m2
18:25 82.6 °F /  28.1 °C 46.2 °F /  7.9 °C 30.2in /  1023.0hPa SE 0.9mph /  1.4km/h 2mph /  3.2km/h 28% 0in /  0.0mm 220 W/m2
18:30 82.8 °F /  28.2 °C 46.4 °F /  8 °C 30.2in /  1023.0hPa SE 0.9mph /  1.4km/h 1mph /  1.6km/h 28% 0in /  0.0mm 206 W/m2
18:35 82.8 °F /  28.2 °C 47.3 °F /  8.5 °C 30.2in /  1023.0hPa SE 0.9mph /  1.4km/h 2mph /  3.2km/h 29% 0in /  0.0mm 188 W/m2
18:40 82.6 °F /  28.1 °C 47.1 °F /  8.4 °C 30.2in /  1023.0hPa SE 2mph /  3.2km/h 2mph /  3.2km/h 29% 0in /  0.0mm 174 W/m2
18:46 82.2 °F /  27.9 °C 46.8 °F /  8.2 °C 30.2in /  1023.0hPa SE 0.9mph /  1.4km/h 2mph /  3.2km/h 29% 0in /  0.0mm 158 W/m2
18:51 81.9 °F /  27.7 °C 47.3 °F /  8.5 °C 30.2in /  1023.0hPa SE 0.9mph /  1.4km/h 2mph /  3.2km/h 30% 0in /  0.0mm 139 W/m2
18:56 81.1 °F /  27.3 °C 46.8 °F /  8.2 °C 30.2in /  1023.0hPa SE 0.9mph /  1.4km/h 2mph /  3.2km/h 30% 0in /  0.0mm 123 W/m2
19:01 80.8 °F /  27.1 °C 47.3 °F /  8.5 °C 30.2in /  1023.0hPa SSE 2mph /  3.2km/h 2mph /  3.2km/h 31% 0in /  0.0mm 81 W/m2
19:06 80.2 °F /  26.8 °C 46.9 °F /  8.3 °C 30.2in /  1023.0hPa SSE 0.9mph /  1.4km/h 2mph /  3.2km/h 31% 0in /  0.0mm 26 W/m2
19:11 79.2 °F /  26.2 °C 46.8 °F /  8.2 °C 30.2in /  1023.0hPa SSE 2mph /  3.2km/h 2mph /  3.2km/h 32% 0in /  0.0mm 25 W/m2
19:16 78.1 °F /  25.6 °C 46.6 °F /  8.1 °C 30.2in /  1023.0hPa SSE 2mph /  3.2km/h 2mph /  3.2km/h 33% 0in /  0.0mm 21 W/m2
19:21 76.8 °F /  24.9 °C 45.5 °F /  7.5 °C 30.2in /  1023.0hPa SSE 2mph /  3.2km/h 2mph /  3.2km/h 33% 0in /  0.0mm 19 W/m2
19:26 75.9 °F /  24.4 °C 46.2 °F /  7.9 °C 30.2in /  1023.0hPa SSE 0.9mph /  1.4km/h 2mph /  3.2km/h 35% 0in /  0.0mm 18 W/m2
19:31 75 °F /  23.9 °C 44.8 °F /  7.1 °C 30.2in /  1023.0hPa Calm   1mph /  1.6km/h 34% 0in /  0.0mm 16 W/m2
19:36 74.3 °F /  23.5 °C 45.7 °F /  7.6 °C 30.2in /  1023.0hPa Calm   1mph /  1.6km/h 36% 0in /  0.0mm 12 W/m2
19:41 73.6 °F /  23.1 °C 45 °F /  7.2 °C 30.2in /  1023.0hPa Calm   2mph /  3.2km/h 36% 0in /  0.0mm 11 W/m2
19:46 72.9 °F /  22.7 °C 45.1 °F /  7.3 °C 30.2in /  1023.0hPa Calm     37% 0in /  0.0mm 7 W/m2
19:51 72.3 °F /  22.4 °C 45.3 °F /  7.4 °C 30.2in /  1023.0hPa Calm     38% 0in /  0.0mm 5 W/m2
19:56 71.8 °F /  22.1 °C 44.8 °F /  7.1 °C 30.2in /  1023.0hPa Calm     38% 0in /  0.0mm 0 W/m2
20:01 71.2 °F /  21.8 °C 44.2 °F /  6.8 °C 30.2in /  1023.0hPa Calm     38% 0in /  0.0mm 0 W/m2
20:06 70.7 °F /  21.5 °C 44.6 °F /  7 °C 30.2in /  1023.4hPa Calm     39% 0in /  0.0mm 0 W/m2
20:11 70.2 °F /  21.2 °C 44.1 °F /  6.7 °C 30.2in /  1023.4hPa Calm     39% 0in /  0.0mm 0 W/m2
20:16 69.6 °F /  20.9 °C 44.2 °F /  6.8 °C 30.2in /  1023.4hPa Calm     40% 0in /  0.0mm 0 W/m2
20:21 69.3 °F /  20.7 °C 43.9 °F /  6.6 °C 30.2in /  1023.4hPa Calm     40% 0in /  0.0mm 0 W/m2
20:26 68.7 °F /  20.4 °C 44.8 °F /  7.1 °C 30.2in /  1023.4hPa Calm     42% 0in /  0.0mm 0 W/m2
20:31 68.5 °F /  20.3 °C 44.6 °F /  7 °C 30.2in /  1023.4hPa Calm     42% 0in /  0.0mm 0 W/m2
20:36 68 °F /  20 °C 44.1 °F /  6.7 °C 30.2in /  1023.4hPa Calm     42% 0in /  0.0mm 0 W/m2
20:41 67.5 °F /  19.7 °C 44.2 °F /  6.8 °C 30.2in /  1023.4hPa Calm     43% 0in /  0.0mm 0 W/m2
20:46 67.1 °F /  19.5 °C 43.9 °F /  6.6 °C 30.2in /  1023.4hPa Calm     43% 0in /  0.0mm 0 W/m2
20:51 66.7 °F /  19.3 °C 43.5 °F /  6.4 °C 30.2in /  1023.4hPa Calm     43% 0in /  0.0mm 0 W/m2
20:57 66.4 °F /  19.1 °C 44.4 °F /  6.9 °C 30.2in /  1023.4hPa Calm     45% 0in /  0.0mm 0 W/m2
21:02 66 °F /  18.9 °C 44.6 °F /  7 °C 30.2in /  1023.4hPa Calm     46% 0in /  0.0mm 0 W/m2
21:07 65.7 °F /  18.7 °C 44.2 °F /  6.8 °C 30.2in /  1023.4hPa Calm     46% 0in /  0.0mm 0 W/m2
21:12 65.3 °F /  18.5 °C 44.6 °F /  7 °C 30.2in /  1023.4hPa Calm     47% 0in /  0.0mm 0 W/m2
21:17 64.9 °F /  18.3 °C 44.2 °F /  6.8 °C 30.2in /  1023.7hPa Calm     47% 0in /  0.0mm 0 W/m2
21:22 64.8 °F /  18.2 °C 44.1 °F /  6.7 °C 30.2in /  1023.7hPa Calm     47% 0in /  0.0mm 0 W/m2
21:27 64.4 °F /  18 °C 44.2 °F /  6.8 °C 30.2in /  1023.7hPa Calm     48% 0in /  0.0mm 0 W/m2
21:32 64 °F /  17.8 °C 44.4 °F /  6.9 °C 30.2in /  1023.7hPa Calm     49% 0in /  0.0mm 0 W/m2
21:37 63.9 °F /  17.7 °C 44.8 °F /  7.1 °C 30.2in /  1023.7hPa Calm     50% 0in /  0.0mm 0 W/m2
21:42 63.5 °F /  17.5 °C 44.6 °F /  7 °C 30.2in /  1024.0hPa Calm     50% 0in /  0.0mm 0 W/m2
21:47 63.3 °F /  17.4 °C 44.4 °F /  6.9 °C 30.2in /  1024.0hPa Calm     50% 0in /  0.0mm 0 W/m2
21:52 63.1 °F /  17.3 °C 44.8 °F /  7.1 °C 30.2in /  1024.0hPa Calm     51% 0in /  0.0mm 0 W/m2
21:57 63 °F /  17.2 °C 44.1 °F /  6.7 °C 30.2in /  1024.0hPa Calm     50% 0in /  0.0mm 0 W/m2
22:02 62.8 °F /  17.1 °C 43.9 °F /  6.6 °C 30.2in /  1024.0hPa Calm     50% 0in /  0.0mm 0 W/m2
22:07 62.6 °F /  17 °C 44.2 °F /  6.8 °C 30.2in /  1024.0hPa Calm     51% 0in /  0.0mm 0 W/m2
22:12 62.4 °F /  16.9 °C 44.6 °F /  7 °C 30.2in /  1024.0hPa Calm     52% 0in /  0.0mm 0 W/m2
22:17 62.2 °F /  16.8 °C 43.9 °F /  6.6 °C 30.2in /  1024.0hPa Calm     51% 0in /  0.0mm 0 W/m2
22:22 62.2 °F /  16.8 °C 44.4 °F /  6.9 °C 30.2in /  1024.0hPa Calm     52% 0in /  0.0mm 0 W/m2
22:27 62.1 °F /  16.7 °C 44.2 °F /  6.8 °C 30.2in /  1024.0hPa Calm     52% 0in /  0.0mm 0 W/m2
22:32 62.1 °F /  16.7 °C 44.2 °F /  6.8 °C 30.2in /  1024.0hPa Calm     52% 0in /  0.0mm 0 W/m2
22:37 61.9 °F /  16.6 °C 44.6 °F /  7 °C 30.2in /  1024.0hPa Calm     53% 0in /  0.0mm 0 W/m2
22:42 61.5 °F /  16.4 °C 44.2 °F /  6.8 °C 30.2in /  1024.0hPa Calm     53% 0in /  0.0mm 0 W/m2
22:48 61.5 °F /  16.4 °C 44.2 °F /  6.8 °C 30.2in /  1024.0hPa Calm     53% 0in /  0.0mm 0 W/m2
22:53 61.3 °F /  16.3 °C 44.1 °F /  6.7 °C 30.2in /  1024.0hPa Calm     53% 0in /  0.0mm 0 W/m2
22:58 61.2 °F /  16.2 °C 44.4 °F /  6.9 °C 30.2in /  1024.0hPa Calm     54% 0in /  0.0mm 0 W/m2
23:03 61 °F /  16.1 °C 44.8 °F /  7.1 °C 30.2in /  1024.0hPa Calm     55% 0in /  0.0mm 0 W/m2
23:08 61 °F /  16.1 °C 44.8 °F /  7.1 °C 30.2in /  1024.0hPa Calm     55% 0in /  0.0mm 0 W/m2
23:13 60.6 °F /  15.9 °C 44.4 °F /  6.9 °C 30.2in /  1024.0hPa Calm     55% 0in /  0.0mm 0 W/m2
23:18 60.4 °F /  15.8 °C 44.2 °F /  6.8 °C 30.2in /  1024.0hPa Calm     55% 0in /  0.0mm 0 W/m2
23:23 60.4 °F /  15.8 °C 44.6 °F /  7 °C 30.2in /  1024.0hPa Calm     56% 0in /  0.0mm 0 W/m2
23:28 60.4 °F /  15.8 °C 45.1 °F /  7.3 °C 30.2in /  1024.0hPa Calm     57% 0in /  0.0mm 0 W/m2
23:33 60.3 °F /  15.7 °C 45 °F /  7.2 °C 30.2in /  1024.0hPa Calm     57% 0in /  0.0mm 0 W/m2
23:38 60.1 °F /  15.6 °C 45.3 °F /  7.4 °C 30.2in /  1024.0hPa Calm     58% 0in /  0.0mm 0 W/m2
23:43 59.7 °F /  15.4 °C 45 °F /  7.2 °C 30.2in /  1024.0hPa Calm     58% 0in /  0.0mm 0 W/m2
23:48 59.5 °F /  15.3 °C 45.1 °F /  7.3 °C 30.2in /  1024.0hPa Calm     59% 0in /  0.0mm 0 W/m2
23:53 59.4 °F /  15.2 °C 45 °F /  7.2 °C 30.2in /  1024.0hPa Calm     59% 0in /  0.0mm 0 W/m2
23:58 59.4 °F /  15.2 °C 45.5 °F /  7.5 °C 30.2in /  1024.0hPa Calm     60% 0in /  0.0mm 0 W/m2
Juneau County Weather
Compliments of Weather Underground - 4 mb